createdAt,value
2018-02-17T00:01:06.873Z,16.30
2018-02-17T00:02:04.431Z,15.40
2018-02-17T00:03:00.884Z,15.70
2018-02-17T00:03:54.876Z,16.00
2018-02-17T00:05:14.794Z,15.20
2018-02-17T00:06:18.877Z,16.30
2018-02-17T00:07:10.380Z,15.50
2018-02-17T00:08:21.378Z,16.10
2018-02-17T00:09:25.379Z,15.30
2018-02-17T00:10:29.379Z,16.00
2018-02-17T00:11:40.235Z,15.30
2018-02-17T00:12:48.333Z,14.60
2018-02-17T00:14:02.384Z,15.20
2018-02-17T00:15:06.385Z,14.30
2018-02-17T00:16:04.385Z,15.10
2018-02-17T00:17:17.385Z,15.20
2018-02-17T00:18:04.895Z,14.90
2018-02-17T00:19:23.399Z,15.60
2018-02-17T00:20:41.393Z,15.50
2018-02-17T00:21:30.893Z,15.60
2018-02-17T00:22:38.895Z,15.60
2018-02-17T00:23:42.391Z,15.20
2018-02-17T00:24:40.893Z,15.20
2018-02-17T00:25:52.528Z,14.90
2018-02-17T00:27:00.626Z,15.50
2018-02-17T00:28:02.397Z,15.90
2018-02-17T00:29:19.395Z,15.90
2018-02-17T00:30:02.391Z,15.10
2018-02-17T00:31:16.396Z,15.80
2018-02-17T00:32:26.898Z,15.80
2018-02-17T00:33:29.904Z,14.80
2018-02-17T00:34:27.902Z,15.00
2018-02-17T00:35:30.587Z,15.60
2018-02-17T00:36:53.739Z,15.50
2018-02-17T00:37:50.906Z,16.00
2018-02-17T00:39:04.907Z,15.40
2018-02-17T00:40:10.158Z,15.60
2018-02-17T00:41:11.411Z,15.70
2018-02-17T00:42:20.909Z,15.90
2018-02-17T00:43:33.911Z,15.90
2018-02-17T00:44:26.415Z,14.40
2018-02-17T00:45:45.912Z,15.50
2018-02-17T00:47:38.053Z,14.50
2018-02-17T00:48:49.414Z,15.40
2018-02-17T00:50:00.597Z,15.90
2018-02-17T00:50:55.916Z,16.10
2018-02-17T00:52:09.927Z,16.00
2018-02-17T00:53:03.916Z,15.30
2018-02-17T00:54:24.419Z,15.10
2018-02-17T00:55:17.939Z,15.10
2018-02-17T00:57:33.478Z,14.30
2018-02-17T00:58:35.176Z,15.80
2018-02-17T01:00:50.922Z,16.50
2018-02-17T01:02:04.427Z,16.70
2018-02-17T01:02:58.646Z,15.00
2018-02-17T01:04:05.415Z,15.30
2018-02-17T01:05:05.427Z,15.50
2018-02-17T01:06:15.156Z,15.50
2018-02-17T01:07:10.926Z,15.10
2018-02-17T01:09:38.929Z,18.70
2018-02-17T01:10:30.428Z,19.20
2018-02-17T01:11:40.939Z,20.30
2018-02-17T01:12:51.143Z,19.20
2018-02-17T01:13:50.938Z,20.10
2018-02-17T01:15:03.448Z,22.10
2018-02-17T01:16:04.935Z,25.20
2018-02-17T01:17:05.434Z,22.10
2018-02-17T01:18:15.935Z,24.10
2018-02-17T01:19:14.938Z,24.00
2018-02-17T01:20:24.935Z,26.20
2018-02-17T01:21:35.938Z,21.20
2018-02-17T01:22:47.938Z,20.70
2018-02-17T01:24:58.937Z,21.10
2018-02-17T01:25:51.939Z,21.30
2018-02-17T01:27:08.438Z,21.20
2018-02-17T01:28:24.942Z,22.50
2018-02-17T01:29:13.300Z,21.60
2018-02-17T01:30:20.942Z,21.50
2018-02-17T01:31:16.057Z,19.50
2018-02-17T01:32:28.444Z,19.60
2018-02-17T01:33:33.178Z,18.70
2018-02-17T01:34:41.270Z,18.50
2018-02-17T01:35:36.451Z,18.30
2018-02-17T01:36:55.944Z,19.10
2018-02-17T01:37:55.832Z,17.70
2018-02-17T01:38:59.945Z,17.50
2018-02-17T01:40:10.903Z,17.40
2018-02-17T01:41:08.962Z,17.20
2018-02-17T01:42:18.802Z,17.00
2018-02-17T01:44:44.448Z,16.80
2018-02-17T01:47:40.339Z,16.40
2018-02-17T01:48:55.951Z,17.60
2018-02-17T01:50:02.950Z,16.10
2018-02-17T01:51:01.962Z,16.50
2018-02-17T01:52:06.450Z,15.60
2018-02-17T01:53:12.951Z,15.70
2018-02-17T01:54:09.951Z,15.70
2018-02-17T01:55:18.952Z,15.80
2018-02-17T01:56:27.813Z,16.60
2018-02-17T01:57:35.906Z,16.00
2018-02-17T01:59:42.371Z,16.50
2018-02-17T02:00:50.989Z,16.20
2018-02-17T02:02:58.777Z,16.60
2018-02-17T02:04:11.994Z,15.20
2018-02-17T02:05:08.522Z,16.00
2018-02-17T02:06:20.715Z,15.40
2018-02-17T02:07:25.122Z,15.30
2018-02-17T02:08:22.776Z,15.00
2018-02-17T02:10:38.049Z,15.30
2018-02-17T02:11:45.220Z,15.80
2018-02-17T02:12:53.523Z,15.30
2018-02-17T02:13:50.868Z,15.60
2018-02-17T02:15:04.394Z,15.50
2018-02-17T02:16:05.217Z,14.50
2018-02-17T02:17:04.509Z,14.40
2018-02-17T02:18:20.186Z,13.90
2018-02-17T02:20:30.140Z,15.50
2018-02-17T02:21:31.776Z,14.80
2018-02-17T02:22:28.917Z,15.10
2018-02-17T02:23:38.243Z,15.00
2018-02-17T02:24:56.479Z,15.50
2018-02-17T02:26:06.007Z,15.50
2018-02-17T02:27:03.253Z,14.70
2018-02-17T02:27:57.113Z,15.90
2018-02-17T02:29:03.365Z,15.80
2018-02-17T02:29:58.456Z,16.20
2018-02-17T02:31:28.572Z,15.70
2018-02-17T02:32:33.401Z,15.40
2018-02-17T02:33:37.288Z,14.80
2018-02-17T02:34:44.568Z,14.10
2018-02-17T02:35:46.416Z,15.00
2018-02-17T02:37:01.786Z,15.40
2018-02-17T02:38:08.754Z,15.50
2018-02-17T02:39:17.977Z,15.90
2018-02-17T02:40:13.275Z,15.50
2018-02-17T02:41:28.129Z,16.40
2018-02-17T02:42:18.510Z,16.20
2018-02-17T02:43:24.354Z,16.60
2018-02-17T02:45:43.931Z,16.30
2018-02-17T02:46:44.753Z,16.40
2018-02-17T02:48:00.838Z,16.30
2018-02-17T02:48:51.474Z,16.30
2018-02-17T02:49:54.193Z,16.20
2018-02-17T02:51:06.593Z,16.10
2018-02-17T02:52:03.734Z,17.00
2018-02-17T02:54:23.511Z,15.40
2018-02-17T02:55:14.403Z,15.00
2018-02-17T02:56:15.954Z,16.20
2018-02-17T02:58:50.471Z,16.60
2018-02-17T02:59:55.393Z,16.50
2018-02-17T03:00:56.424Z,16.80
2018-02-17T03:01:45.268Z,15.60
2018-02-17T03:03:17.431Z,15.40
2018-02-17T03:04:13.239Z,15.90
2018-02-17T03:05:07.306Z,16.50
2018-02-17T03:06:36.088Z,16.00
2018-02-17T03:07:20.222Z,16.30
2018-02-17T03:08:34.463Z,16.40
2018-02-17T03:09:45.018Z,16.00
2018-02-17T03:11:38.785Z,17.00
2018-02-17T03:13:11.151Z,16.70
2018-02-17T03:13:49.550Z,17.10
2018-02-17T03:15:18.026Z,16.70
2018-02-17T03:16:14.960Z,16.70
2018-02-17T03:17:26.846Z,16.80
2018-02-17T03:18:41.498Z,16.60
2018-02-17T03:19:26.454Z,16.90
2018-02-17T03:21:35.986Z,16.00
2018-02-17T03:22:39.887Z,16.20
2018-02-17T03:24:02.419Z,14.80
2018-02-17T03:24:52.085Z,15.40
2018-02-17T03:26:09.808Z,15.30
2018-02-17T03:27:12.896Z,14.60
2018-02-17T03:28:17.093Z,16.20
2018-02-17T03:29:27.647Z,15.90
2018-02-17T03:30:23.968Z,16.10
2018-02-17T03:31:44.901Z,16.70
2018-02-17T03:32:38.214Z,16.20
2018-02-17T03:33:54.606Z,16.40
2018-02-17T03:34:41.097Z,16.20
2018-02-17T03:36:01.175Z,15.80
2018-02-17T03:37:10.923Z,16.50
2018-02-17T03:38:01.701Z,16.30
2018-02-17T03:39:22.188Z,15.60
2018-02-17T03:40:21.273Z,15.20
2018-02-17T03:41:26.195Z,15.10
2018-02-17T03:43:38.805Z,15.40
2018-02-17T03:44:46.286Z,15.90
2018-02-17T03:45:33.697Z,16.30
2018-02-17T03:46:56.949Z,16.80
2018-02-17T03:48:11.395Z,16.50
2018-02-17T03:49:04.540Z,17.40
2018-02-17T03:50:09.257Z,17.40
2018-02-17T03:51:25.956Z,16.20
2018-02-17T03:52:19.716Z,16.80
2018-02-17T03:53:40.511Z,17.10
2018-02-17T03:54:37.342Z,16.40
2018-02-17T03:55:36.734Z,16.30
2018-02-17T03:57:29.582Z,16.70
2018-02-17T03:58:33.483Z,16.90
2018-02-17T03:59:54.377Z,17.50
2018-02-17T04:00:42.813Z,16.40
2018-02-17T04:01:51.011Z,15.90
2018-02-17T04:03:01.361Z,15.60
2018-02-17T04:04:10.581Z,15.30
2018-02-17T04:05:18.682Z,15.90
2018-02-17T04:06:13.155Z,16.20
2018-02-17T04:07:34.769Z,16.10
2018-02-17T04:08:43.890Z,15.90
2018-02-17T04:10:47.189Z,16.20
2018-02-17T04:11:56.914Z,16.50
2018-02-17T04:12:56.716Z,16.40
2018-02-17T04:14:03.891Z,15.30
2018-02-17T04:15:24.583Z,16.20
2018-02-17T04:16:35.034Z,16.80
2018-02-17T04:17:43.131Z,16.40
2018-02-17T04:18:17.487Z,16.10
2018-02-17T04:19:44.784Z,15.60
2018-02-17T04:20:52.369Z,16.20
2018-02-17T04:21:40.804Z,15.80
2018-02-17T04:22:53.711Z,16.40
2018-02-17T04:23:59.556Z,15.80
2018-02-17T04:25:26.188Z,15.50
2018-02-17T04:26:12.063Z,15.60
2018-02-17T04:27:32.141Z,15.60
2018-02-17T04:28:08.186Z,16.70
2018-02-17T04:29:50.591Z,16.30
2018-02-17T04:30:36.562Z,16.10
2018-02-17T04:32:07.293Z,16.40
2018-02-17T04:33:00.950Z,16.80
2018-02-17T04:34:47.549Z,16.70
2018-02-17T04:36:06.811Z,16.20
2018-02-17T04:37:22.992Z,16.10
2018-02-17T04:38:43.992Z,16.50
2018-02-17T04:39:34.988Z,16.10
2018-02-17T04:40:51.379Z,16.30
2018-02-17T04:41:45.345Z,16.20
2018-02-17T04:43:13.514Z,16.40
2018-02-17T04:44:29.902Z,17.10
2018-02-17T04:45:55.108Z,16.90
2018-02-17T04:47:00.127Z,16.30
2018-02-17T04:48:08.221Z,16.80
2018-02-17T04:49:14.990Z,17.20
2018-02-17T04:50:25.848Z,16.80
2018-02-17T04:51:23.810Z,16.50
2018-02-17T04:52:26.065Z,17.20
2018-02-17T04:53:25.150Z,17.10
2018-02-17T04:54:35.806Z,16.30
2018-02-17T04:58:10.337Z,16.50
2018-02-17T04:58:59.389Z,16.50
2018-02-17T05:00:18.132Z,16.60
2018-02-17T05:01:10.563Z,17.20
2018-02-17T05:02:39.345Z,16.20
2018-02-17T05:03:21.428Z,16.20
2018-02-17T05:04:37.720Z,16.50
2018-02-17T05:05:39.567Z,16.50
2018-02-17T05:07:22.481Z,16.90
2018-02-17T05:07:56.579Z,16.20
2018-02-17T05:09:35.299Z,16.50
2018-02-17T05:10:21.789Z,16.80
2018-02-17T05:11:36.949Z,17.00
2018-02-17T05:14:23.758Z,17.00
2018-02-17T05:15:21.307Z,15.80
2018-02-17T05:16:37.082Z,17.00
2018-02-17T05:17:12.923Z,16.80
2018-02-17T05:18:30.033Z,17.50
2018-02-17T05:19:21.440Z,17.40
2018-02-17T05:21:33.839Z,16.60
2018-02-17T05:23:13.784Z,16.60
2018-02-17T05:24:27.715Z,17.30
2018-02-17T05:26:25.275Z,16.70
2018-02-17T05:27:44.333Z,17.40
2018-02-17T05:28:48.530Z,17.20
2018-02-17T05:29:54.276Z,16.80
2018-02-17T05:30:29.192Z,17.40
2018-02-17T05:32:01.146Z,16.40
2018-02-17T05:33:17.638Z,16.40
2018-02-17T05:34:16.315Z,16.00
2018-02-17T05:35:27.692Z,16.60
2018-02-17T05:36:34.146Z,17.70
2018-02-17T05:38:52.285Z,16.40
2018-02-17T05:39:48.605Z,17.10
2018-02-17T05:40:47.792Z,17.00
2018-02-17T05:41:56.402Z,17.20
2018-02-17T05:42:59.685Z,16.60
2018-02-17T05:44:09.624Z,17.40
2018-02-17T05:45:06.150Z,17.30
2018-02-17T05:46:23.052Z,17.40
2018-02-17T05:47:16.811Z,16.70
2018-02-17T05:48:31.667Z,17.20
2018-02-17T05:49:20.308Z,17.60
2018-02-17T05:50:43.970Z,17.30
2018-02-17T05:51:52.167Z,18.20
2018-02-17T05:52:53.302Z,17.80
2018-02-17T05:53:46.550Z,17.40
2018-02-17T05:54:58.130Z,17.10
2018-02-17T05:56:09.194Z,16.80
2018-02-17T05:57:10.745Z,17.10
2018-02-17T05:58:14.532Z,17.60
2018-02-17T05:59:04.607Z,16.90
2018-02-17T06:00:13.522Z,17.50
2018-02-17T06:01:36.568Z,17.80
2018-02-17T06:02:28.794Z,17.80
2018-02-17T06:03:31.670Z,17.40
2018-02-17T06:05:56.463Z,17.30
2018-02-17T06:06:49.402Z,18.10
2018-02-17T06:07:57.806Z,17.50
2018-02-17T06:09:14.812Z,17.90
2018-02-17T06:10:19.456Z,16.50
2018-02-17T06:11:21.277Z,17.90
2018-02-17T06:12:24.152Z,17.50
2018-02-17T06:13:35.524Z,16.50
2018-02-17T06:14:37.578Z,17.90
2018-02-17T06:15:43.321Z,16.80
2018-02-17T06:16:43.328Z,17.90
2018-02-17T06:18:07.501Z,17.20
2018-02-17T06:19:07.303Z,17.20
2018-02-17T06:20:33.524Z,17.60
2018-02-17T06:21:44.185Z,17.20
2018-02-17T06:22:33.030Z,16.50
2018-02-17T06:23:52.899Z,16.50
2018-02-17T06:24:49.489Z,16.30
2018-02-17T06:26:07.863Z,16.30
2018-02-17T06:28:02.040Z,17.10
2018-02-17T06:28:50.168Z,17.50
2018-02-17T06:30:22.637Z,18.00
2018-02-17T06:31:27.150Z,17.60
2018-02-17T06:32:57.260Z,17.50
2018-02-17T06:33:56.859Z,16.30
2018-02-17T06:35:16.632Z,17.40
2018-02-17T06:37:48.898Z,16.10
2018-02-17T06:38:21.467Z,17.40
2018-02-17T06:40:30.897Z,17.30
2018-02-17T06:41:40.630Z,17.50
2018-02-17T06:42:39.613Z,17.50
2018-02-17T06:43:51.807Z,17.60
2018-02-17T06:46:26.639Z,17.90
2018-02-17T06:48:08.525Z,17.50
2018-02-17T06:49:12.834Z,17.90
2018-02-17T06:50:07.530Z,17.10
2018-02-17T06:51:11.518Z,17.10
2018-02-17T06:52:23.507Z,16.90
2018-02-17T06:54:33.757Z,17.00
2018-02-17T06:55:11.748Z,17.10
2018-02-17T06:56:56.406Z,18.40
2018-02-17T06:57:36.646Z,17.80
2018-02-17T06:58:40.236Z,18.50
2018-02-17T07:00:25.512Z,16.40
2018-02-17T07:01:33.498Z,18.20
2018-02-17T07:02:36.169Z,19.00
2018-02-17T07:03:26.038Z,19.00
2018-02-17T07:04:38.762Z,18.30
2018-02-17T07:05:49.091Z,19.00
2018-02-17T07:06:53.194Z,18.90
2018-02-17T07:07:32.107Z,17.90
2018-02-17T07:08:51.162Z,18.60
2018-02-17T07:09:56.901Z,18.30
2018-02-17T07:11:13.702Z,19.30
2018-02-17T07:12:24.461Z,19.00
2018-02-17T07:13:11.157Z,19.00
2018-02-17T07:14:20.173Z,18.60
2018-02-17T07:15:41.994Z,18.60
2018-02-17T07:16:29.492Z,18.90
2018-02-17T07:17:39.653Z,18.40
2018-02-17T07:19:27.787Z,18.20
2018-02-17T07:20:43.053Z,18.20
2018-02-17T07:21:50.535Z,19.10
2018-02-17T07:23:12.557Z,18.80
2018-02-17T07:25:32.643Z,18.80
2018-02-17T07:26:13.715Z,19.10
2018-02-17T07:27:11.051Z,19.10
2018-02-17T07:28:16.995Z,19.10
2018-02-17T07:29:22.226Z,16.50
2018-02-17T07:30:28.478Z,16.60
2018-02-17T07:32:55.538Z,15.80
2018-02-17T07:33:52.995Z,16.00
2018-02-17T07:34:50.831Z,16.50
2018-02-17T07:35:57.186Z,16.40
2018-02-17T07:37:03.851Z,15.60
2018-02-17T07:38:20.340Z,15.80
2018-02-17T07:39:24.648Z,16.20
2018-02-17T07:41:29.887Z,16.60
2018-02-17T07:42:56.315Z,17.10
2018-02-17T07:43:51.497Z,15.20
2018-02-17T07:44:45.883Z,15.90
2018-02-17T07:45:46.224Z,15.60
2018-02-17T07:46:49.277Z,15.10
2018-02-17T07:47:57.371Z,15.70
2018-02-17T07:49:06.185Z,15.70
2018-02-17T07:50:24.523Z,16.00
2018-02-17T07:53:24.233Z,16.10
2018-02-17T07:54:31.517Z,17.40
2018-02-17T07:55:55.174Z,16.60
2018-02-17T07:56:58.867Z,16.10
2018-02-17T07:58:04.301Z,16.60
2018-02-17T08:00:19.266Z,16.40
2018-02-17T08:01:12.311Z,16.10
2018-02-17T08:04:01.988Z,17.60
2018-02-17T08:04:46.003Z,17.40
2018-02-17T08:07:14.809Z,20.60
2018-02-17T08:08:23.726Z,19.60
2018-02-17T08:09:18.408Z,17.80
2018-02-17T08:09:49.742Z,18.00
2018-02-17T08:11:21.288Z,19.10
2018-02-17T08:12:21.603Z,18.90
2018-02-17T08:13:40.555Z,18.70
2018-02-17T08:14:43.121Z,20.40
2018-02-17T08:15:26.276Z,20.40
2018-02-17T08:16:33.305Z,20.60
2018-02-17T08:18:52.676Z,19.00
2018-02-17T08:20:56.787Z,19.60
2018-02-17T08:22:03.649Z,19.40
2018-02-17T08:22:59.049Z,19.80
2018-02-17T08:24:28.856Z,19.90
2018-02-17T08:25:40.125Z,19.20
2018-02-17T08:26:14.226Z,19.60
2018-02-17T08:27:48.537Z,19.70
2018-02-17T08:29:43.637Z,18.80
2018-02-17T08:31:11.084Z,20.40
2018-02-17T08:32:06.386Z,19.60
2018-02-17T08:33:43.869Z,19.40
2018-02-17T08:34:57.085Z,19.70
2018-02-17T08:36:33.447Z,19.10
2018-02-17T08:37:25.263Z,19.50
2018-02-17T08:38:24.242Z,19.30
2018-02-17T08:39:45.447Z,19.70
2018-02-17T08:40:35.528Z,19.40
2018-02-17T08:41:35.016Z,19.60
2018-02-17T08:43:07.691Z,20.40
2018-02-17T08:44:10.153Z,19.70
2018-02-17T08:45:15.382Z,19.00
2018-02-17T08:46:00.544Z,18.90
2018-02-17T08:47:36.286Z,19.10
2018-02-17T08:48:14.180Z,20.10
2018-02-17T08:49:22.988Z,20.10
2018-02-17T08:50:40.914Z,19.20
2018-02-17T08:51:59.663Z,20.10
2018-02-17T08:53:06.843Z,19.60
2018-02-17T08:53:45.853Z,19.80
2018-02-17T08:54:42.480Z,20.20
2018-02-17T08:56:18.121Z,19.50
2018-02-17T08:57:30.622Z,19.80
2018-02-17T08:58:29.197Z,19.80
2018-02-17T08:59:26.336Z,18.90
2018-02-17T09:00:23.782Z,20.10
2018-02-17T09:01:16.722Z,19.60
2018-02-17T09:02:32.909Z,21.30
2018-02-17T09:03:33.530Z,20.60
2018-02-17T09:04:49.928Z,20.80
2018-02-17T09:06:56.798Z,19.50
2018-02-17T09:08:02.130Z,19.50
2018-02-17T09:10:01.937Z,20.80
2018-02-17T09:11:12.540Z,21.30
2018-02-17T09:12:20.588Z,20.70
2018-02-17T09:13:19.060Z,20.60
2018-02-17T09:14:26.644Z,20.90
2018-02-17T09:15:31.671Z,20.90
2018-02-17T09:16:35.267Z,20.90
2018-02-17T09:18:38.664Z,20.30
2018-02-17T09:20:50.959Z,22.20
2018-02-17T09:21:48.298Z,21.40
2018-02-17T09:23:05.307Z,21.30
2018-02-17T09:25:28.359Z,21.30
2018-02-17T09:26:23.349Z,21.70
2018-02-17T09:27:26.842Z,21.80
2018-02-17T09:28:31.863Z,20.50
2018-02-17T09:29:42.724Z,21.00
2018-02-17T09:30:48.572Z,21.20
2018-02-17T09:31:39.767Z,21.00
2018-02-17T09:32:52.370Z,20.50
2018-02-17T09:34:00.057Z,21.00
2018-02-17T09:34:57.094Z,21.50
2018-02-17T09:36:03.765Z,20.40
2018-02-17T09:37:14.517Z,20.90
2018-02-17T09:39:16.580Z,20.80
2018-02-17T09:41:36.973Z,20.80
2018-02-17T09:42:48.139Z,20.40
2018-02-17T09:43:48.760Z,21.30
2018-02-17T09:44:45.388Z,20.60
2018-02-17T09:46:02.341Z,21.30
2018-02-17T09:47:05.473Z,21.40
2018-02-17T09:48:07.529Z,20.70
2018-02-17T09:49:14.497Z,20.40
2018-02-17T09:50:24.339Z,20.90
2018-02-17T09:51:20.144Z,21.70
2018-02-17T09:52:34.998Z,22.00
2018-02-17T09:53:38.086Z,21.90
2018-02-17T09:54:51.446Z,22.80
2018-02-17T09:55:58.777Z,21.70
2018-02-17T09:57:00.319Z,21.80
2018-02-17T09:58:09.049Z,22.60
2018-02-17T09:59:12.622Z,21.60
2018-02-17T10:00:10.687Z,22.20
2018-02-17T10:01:20.832Z,21.30
2018-02-17T10:02:19.748Z,21.70
2018-02-17T10:03:28.537Z,21.90
2018-02-17T10:04:29.981Z,22.70
2018-02-17T10:05:46.456Z,22.30
2018-02-17T10:06:43.493Z,23.20
2018-02-17T10:07:54.671Z,21.80
2018-02-17T10:09:05.534Z,22.00
2018-02-17T10:10:06.248Z,21.80
2018-02-17T10:11:16.699Z,21.30
2018-02-17T10:13:28.387Z,22.50
2018-02-17T10:14:24.710Z,22.00
2018-02-17T10:15:33.829Z,22.00
2018-02-17T10:16:30.970Z,22.00
2018-02-17T10:17:44.083Z,21.40
2018-02-17T10:18:52.179Z,21.40
2018-02-17T10:20:52.501Z,21.20
2018-02-17T10:22:04.693Z,21.60
2018-02-17T10:23:06.954Z,21.40
2018-02-17T10:24:11.977Z,21.10
2018-02-17T10:25:20.177Z,21.40
2018-02-17T10:26:24.079Z,21.00
2018-02-17T10:27:26.334Z,21.80
2018-02-17T10:28:24.637Z,20.90
2018-02-17T10:30:41.409Z,21.90
2018-02-17T10:31:49.607Z,22.30
2018-02-17T10:33:02.826Z,22.40
2018-02-17T10:34:04.990Z,22.70
2018-02-17T10:35:12.566Z,20.90
2018-02-17T10:36:14.519Z,22.20
2018-02-17T10:37:17.393Z,22.20
2018-02-17T10:39:25.295Z,21.30
2018-02-17T10:40:30.830Z,21.60
2018-02-17T10:41:46.708Z,22.30
2018-02-17T10:42:43.642Z,20.60
2018-02-17T10:44:52.568Z,21.90
2018-02-17T10:45:55.747Z,21.20
2018-02-17T10:47:09.681Z,21.20
2018-02-17T10:48:13.168Z,21.00
2018-02-17T10:49:21.581Z,20.30
2018-02-17T10:50:36.026Z,20.60
2018-02-17T10:52:37.058Z,20.80
2018-02-17T10:53:44.233Z,20.20
2018-02-17T10:55:00.419Z,19.90
2018-02-17T10:57:00.228Z,19.30
2018-02-17T10:57:54.608Z,20.00
2018-02-17T10:59:25.234Z,20.00
2018-02-17T11:00:20.216Z,19.70
2018-02-17T11:01:21.664Z,20.60
2018-02-17T11:02:41.938Z,20.70
2018-02-17T11:03:39.899Z,20.10
2018-02-17T11:04:47.586Z,20.10
2018-02-17T11:05:48.417Z,19.70
2018-02-17T11:06:45.244Z,19.90
2018-02-17T11:07:54.782Z,19.80
2018-02-17T11:09:12.400Z,20.20
2018-02-17T11:10:21.413Z,20.80
2018-02-17T11:11:15.685Z,20.70
2018-02-17T11:12:30.336Z,20.30
2018-02-17T11:13:32.287Z,20.20
2018-02-17T11:14:49.097Z,20.70
2018-02-17T11:15:41.828Z,20.50
2018-02-17T11:16:45.934Z,19.70
2018-02-17T11:18:00.170Z,20.50
2018-02-17T11:19:06.529Z,20.70
2018-02-17T11:20:23.225Z,21.10
2018-02-17T11:21:20.977Z,20.80
2018-02-17T11:22:02.247Z,21.00
2018-02-17T11:23:40.856Z,21.80
2018-02-17T11:24:37.489Z,20.90
2018-02-17T11:25:24.384Z,21.60
2018-02-17T11:26:18.144Z,19.80
2018-02-17T11:28:55.747Z,20.50
2018-02-17T11:30:16.651Z,20.10
2018-02-17T11:31:01.692Z,22.10
2018-02-17T11:32:28.119Z,21.10
2018-02-17T11:33:23.928Z,21.20
2018-02-17T11:34:15.951Z,21.60
2018-02-17T11:35:53.025Z,20.30
2018-02-17T11:36:29.785Z,20.90
2018-02-17T11:38:47.104Z,20.80
2018-02-17T11:40:11.485Z,20.10
2018-02-17T11:40:48.864Z,20.80
2018-02-17T11:41:51.426Z,20.50
2018-02-17T11:42:50.307Z,20.60
2018-02-17T11:44:05.983Z,20.10
2018-02-17T11:45:13.465Z,20.50
2018-02-17T11:46:22.390Z,20.80
2018-02-17T11:48:12.972Z,19.70
2018-02-17T11:51:58.767Z,20.50
2018-02-17T11:52:57.034Z,19.80
2018-02-17T11:53:42.913Z,20.30
2018-02-17T11:55:11.487Z,20.80
2018-02-17T11:56:02.482Z,20.30
2018-02-17T11:57:05.664Z,20.80
2018-02-17T11:58:16.941Z,20.50
2018-02-17T11:59:19.602Z,21.10
2018-02-17T12:04:59.373Z,21.30
2018-02-17T12:05:56.626Z,20.70
2018-02-17T12:08:20.078Z,20.10
2018-02-17T12:09:23.566Z,20.50
2018-02-17T12:11:27.058Z,20.50
2018-02-17T12:12:41.302Z,20.80
2018-02-17T12:13:28.711Z,21.80
2018-02-17T12:17:27.064Z,21.00
2018-02-17T12:18:21.995Z,20.80
2018-02-17T12:19:37.867Z,20.50
2018-02-17T12:20:29.377Z,21.40
2018-02-17T12:21:25.899Z,21.40
2018-02-17T12:22:46.389Z,20.50
2018-02-17T12:23:28.576Z,20.50
2018-02-17T12:26:14.672Z,20.70
2018-02-17T12:27:16.215Z,21.00
2018-02-17T12:28:19.702Z,21.30
2018-02-17T12:29:05.075Z,21.00
2018-02-17T12:33:36.430Z,20.20
2018-02-17T12:35:00.602Z,20.70
2018-02-17T12:36:26.117Z,21.50
2018-02-17T12:37:15.464Z,21.00
2018-02-17T12:37:59.089Z,20.40
2018-02-17T12:39:26.443Z,20.30
2018-02-17T12:40:19.274Z,19.50
2018-02-17T12:41:50.720Z,19.40
2018-02-17T12:42:41.817Z,19.20
2018-02-17T12:43:32.712Z,19.80
2018-02-17T12:44:22.581Z,19.80
2018-02-17T12:45:34.978Z,19.90
2018-02-17T12:46:58.332Z,19.10
2018-02-17T12:47:48.613Z,18.20
2018-02-17T12:49:05.003Z,19.20
2018-02-17T12:50:06.749Z,19.40
2018-02-17T12:51:12.081Z,18.20
2018-02-17T12:52:25.811Z,18.50
2018-02-17T12:53:18.549Z,17.80
2018-02-17T12:54:22.651Z,18.80
2018-02-17T12:55:22.351Z,18.20
2018-02-17T12:56:38.849Z,18.40
2018-02-17T12:57:44.794Z,17.70
2018-02-17T12:58:42.544Z,17.70
2018-02-17T12:59:47.772Z,16.80
2018-02-17T13:00:48.598Z,17.80
2018-02-17T13:02:00.576Z,17.40
2018-02-17T13:03:10.321Z,17.10
2018-02-17T13:04:10.026Z,17.80
2018-02-17T13:05:35.018Z,16.40
2018-02-17T13:06:48.334Z,16.20
2018-02-17T13:07:43.629Z,16.30
2018-02-17T13:08:32.897Z,16.60
2018-02-17T13:09:39.240Z,16.40
2018-02-17T13:10:51.639Z,16.50
2018-02-17T13:11:57.073Z,15.80
2018-02-17T13:13:03.942Z,16.40
2018-02-17T13:14:16.031Z,16.40
2018-02-17T13:16:20.660Z,16.60
2018-02-17T13:17:41.753Z,16.60
2018-02-17T13:19:26.408Z,16.10
2018-02-17T13:20:36.245Z,16.10
2018-02-17T13:21:36.971Z,15.90
2018-02-17T13:22:34.007Z,16.30
2018-02-17T13:24:43.747Z,16.10
2018-02-17T13:26:11.613Z,16.10
2018-02-17T13:27:08.343Z,15.20
2018-02-17T13:28:17.153Z,16.20
2018-02-17T13:29:19.924Z,16.10
2018-02-17T13:30:18.499Z,16.20
2018-02-17T13:31:29.461Z,16.20
2018-02-17T13:32:35.722Z,15.40
2018-02-17T13:34:44.543Z,16.00
2018-02-17T13:35:42.802Z,15.90
2018-02-17T13:36:54.074Z,16.20
2018-02-17T13:37:57.253Z,15.70
2018-02-17T13:38:57.362Z,15.20
2018-02-17T13:40:09.145Z,15.00
2018-02-17T13:41:19.293Z,15.70
2018-02-17T13:43:27.602Z,14.60
2018-02-17T13:44:38.366Z,14.50
2018-02-17T13:45:46.361Z,14.70
2018-02-17T13:46:48.104Z,14.60
2018-02-17T13:48:09.308Z,14.40
2018-02-17T13:49:19.962Z,14.60
2018-02-17T13:50:52.022Z,14.80
2018-02-17T13:51:41.588Z,14.70
2018-02-17T13:53:43.030Z,14.40
2018-02-17T13:54:42.216Z,14.60
2018-02-17T13:57:00.663Z,13.80
2018-02-17T13:57:51.862Z,14.00
2018-02-17T13:58:59.345Z,14.00
2018-02-17T13:59:55.667Z,13.80
2018-02-17T14:01:14.309Z,14.00
2018-02-17T14:02:21.177Z,14.90
2018-02-17T14:04:30.100Z,15.10
2018-02-17T14:05:35.743Z,15.40
2018-02-17T14:06:40.764Z,15.90
2018-02-17T14:07:46.512Z,15.50
2018-02-17T14:09:02.078Z,15.10
2018-02-17T14:09:53.075Z,15.50
2018-02-17T14:11:00.556Z,16.00
2018-02-17T14:12:10.523Z,15.20
2018-02-17T14:13:52.798Z,14.00
2018-02-17T14:14:37.653Z,12.80
2018-02-17T14:16:42.779Z,13.00
2018-02-17T14:18:15.605Z,12.80
2018-02-17T14:18:45.148Z,13.00
2018-02-17T14:19:57.554Z,12.60
2018-02-17T14:20:48.339Z,13.40
2018-02-17T14:22:00.633Z,13.70
2018-02-17T14:23:19.378Z,13.80
2018-02-17T14:24:06.691Z,13.50
2018-02-17T14:25:14.784Z,13.80
2018-02-17T14:26:12.743Z,13.80
2018-02-17T14:27:47.472Z,14.30
2018-02-17T14:29:38.262Z,12.80
2018-02-17T14:30:52.715Z,13.20
2018-02-17T14:31:52.719Z,12.90
2018-02-17T14:32:54.973Z,13.70
2018-02-17T14:34:00.817Z,14.00
2018-02-17T14:36:09.332Z,13.90
2018-02-17T14:37:16.820Z,14.10
2018-02-17T14:38:29.826Z,14.70
2018-02-17T14:39:21.137Z,14.70
2018-02-17T14:40:42.233Z,15.20
2018-02-17T14:42:54.950Z,14.30
2018-02-17T14:43:50.341Z,14.60
2018-02-17T14:45:02.249Z,14.80
2018-02-17T14:45:59.479Z,14.90
2018-02-17T14:47:13.197Z,15.10
2018-02-17T14:48:08.596Z,14.70
2018-02-17T14:49:28.365Z,15.00
2018-02-17T14:50:21.539Z,14.90
2018-02-17T14:51:28.183Z,13.90
2018-02-17T14:52:34.840Z,14.40
2018-02-17T14:54:55.231Z,13.30
2018-02-17T14:55:48.478Z,13.80
2018-02-17T14:57:01.594Z,13.30
2018-02-17T14:57:59.756Z,13.70
2018-02-17T14:59:14.099Z,14.10
2018-02-17T15:00:17.792Z,14.40
2018-02-17T15:01:22.920Z,14.70
2018-02-17T15:02:25.600Z,14.70
2018-02-17T15:03:34.504Z,13.90
2018-02-17T15:04:36.561Z,13.90
2018-02-17T15:05:46.816Z,14.40
2018-02-17T15:06:47.940Z,13.50
2018-02-17T15:08:02.188Z,14.30
2018-02-17T15:09:03.621Z,14.10
2018-02-17T15:11:16.540Z,14.80
2018-02-17T15:12:17.466Z,14.30
2018-02-17T15:13:18.296Z,14.40
2018-02-17T15:14:33.772Z,15.10
2018-02-17T15:16:40.338Z,14.90
2018-02-17T15:17:46.688Z,14.50
2018-02-17T15:18:48.126Z,15.30
2018-02-17T15:19:43.326Z,15.10
2018-02-17T15:22:11.700Z,14.80
2018-02-17T15:23:20.617Z,14.90
2018-02-17T15:24:17.652Z,15.00
2018-02-17T15:25:26.979Z,14.70
2018-02-17T15:26:22.787Z,15.50
2018-02-17T15:27:39.384Z,15.10
2018-02-17T15:28:44.204Z,15.80
2018-02-17T15:29:46.054Z,16.10
2018-02-17T15:31:54.467Z,15.20
2018-02-17T15:33:13.038Z,15.90
2018-02-17T15:34:17.830Z,15.70
2018-02-17T15:35:45.486Z,15.10
2018-02-17T15:36:23.991Z,15.20
2018-02-17T15:37:35.768Z,15.30
2018-02-17T15:38:28.103Z,14.80
2018-02-17T15:39:39.076Z,14.90
2018-02-17T15:40:39.994Z,15.30
2018-02-17T15:41:56.072Z,14.50
2018-02-17T15:43:06.219Z,15.10
2018-02-17T15:44:00.112Z,15.00
2018-02-17T15:46:08.086Z,15.50
2018-02-17T15:47:16.487Z,16.00
2018-02-17T15:48:22.331Z,16.80
2018-02-17T15:49:24.082Z,16.70
2018-02-17T15:50:39.647Z,15.80
2018-02-17T15:51:33.106Z,16.40
2018-02-17T15:52:50.311Z,16.10